Time,TemperatureF,DewpointF,PressureIn,WindDirection,WindDirectionDegrees,WindSpeedMPH,WindSpeedGustMPH,Humidity,HourlyPrecipIn,Conditions,Clouds,dailyrainin,SolarRadiationWatts/m^2,SoftwareType,DateUTC
2013-08-11 00:01:00,55.8,52.6,29.68,West,268,0.0,0.0,89,0.00,,,0.00,0,WeatherCatV1.02B3,2013-08-11 07:01:00,
2013-08-11 00:06:00,55.8,52.6,29.68,West,268,0.0,0.0,89,0.00,,,0.00,0,WeatherCatV1.02B3,2013-08-11 07:06:00,
2013-08-11 00:11:00,55.8,52.9,29.68,West,268,0.0,0.0,90,0.00,,,0.00,0,WeatherCatV1.02B3,2013-08-11 07:11:00,
2013-08-11 00:16:00,55.9,53.0,29.68,West,268,0.0,0.0,90,0.00,,,0.00,0,WeatherCatV1.02B3,2013-08-11 07:16:00,
2013-08-11 00:21:00,55.5,52.6,29.68,West,268,0.0,0.0,90,0.00,,,0.00,0,WeatherCatV1.02B3,2013-08-11 07:21:00,
2013-08-11 00:26:00,55.4,52.8,29.68,West,268,0.0,0.0,91,0.00,,,0.00,0,WeatherCatV1.02B3,2013-08-11 07:26:00,
2013-08-11 00:31:00,55.5,52.9,29.68,West,268,0.0,0.0,91,0.00,,,0.00,0,WeatherCatV1.02B3,2013-08-11 07:31:00,
2013-08-11 00:36:00,55.0,52.1,29.68,West,268,0.0,0.0,90,0.00,,,0.00,0,WeatherCatV1.02B3,2013-08-11 07:36:00,
2013-08-11 00:41:00,55.0,52.4,29.68,West,268,0.0,0.0,91,0.00,,,0.00,0,WeatherCatV1.02B3,2013-08-11 07:41:00,
2013-08-11 00:46:00,55.0,52.4,29.68,West,268,0.0,0.0,91,0.00,,,0.00,0,WeatherCatV1.02B3,2013-08-11 07:46:00,
2013-08-11 00:51:00,55.1,52.5,29.68,West,268,0.0,0.0,91,0.00,,,0.00,0,WeatherCatV1.02B3,2013-08-11 07:51:00,
2013-08-11 00:56:00,54.9,52.3,29.68,West,268,0.0,0.0,91,0.00,,,0.00,0,WeatherCatV1.02B3,2013-08-11 07:56:00,
2013-08-11 01:01:00,54.8,52.2,29.68,West,268,0.0,0.0,91,0.00,,,0.00,0,WeatherCatV1.02B3,2013-08-11 08:01:00,
2013-08-11 01:06:00,54.7,52.1,29.68,West,268,0.0,0.0,91,0.00,,,0.00,0,WeatherCatV1.02B3,2013-08-11 08:06:00,
2013-08-11 01:11:00,54.6,52.0,29.68,West,268,0.0,0.0,91,0.00,,,0.00,0,WeatherCatV1.02B3,2013-08-11 08:11:00,
2013-08-11 01:16:00,55.1,52.5,29.68,West,268,0.0,1.0,91,0.00,,,0.00,0,WeatherCatV1.02B3,2013-08-11 08:16:00,
2013-08-11 01:21:00,54.7,51.8,29.68,West,268,0.0,0.0,90,0.00,,,0.00,0,WeatherCatV1.02B3,2013-08-11 08:21:00,
2013-08-11 01:26:00,54.3,51.4,29.68,West,268,0.0,0.0,90,0.00,,,0.00,0,WeatherCatV1.02B3,2013-08-11 08:26:00,
2013-08-11 01:31:00,53.5,50.6,29.68,West,268,0.0,0.0,90,0.00,,,0.00,0,WeatherCatV1.02B3,2013-08-11 08:31:00,
2013-08-11 01:36:00,53.9,51.3,29.68,West,268,0.0,0.0,91,0.00,,,0.00,0,WeatherCatV1.02B3,2013-08-11 08:36:00,
2013-08-11 01:41:00,53.7,51.1,29.68,West,268,0.0,0.0,91,0.00,,,0.00,0,WeatherCatV1.02B3,2013-08-11 08:41:00,
2013-08-11 01:46:00,53.6,51.0,29.68,West,268,0.0,0.0,91,0.00,,,0.00,0,WeatherCatV1.02B3,2013-08-11 08:46:00,
2013-08-11 01:51:00,53.9,51.6,29.68,West,268,0.0,0.0,92,0.00,,,0.00,0,WeatherCatV1.02B3,2013-08-11 08:51:00,
2013-08-11 01:56:00,53.4,50.8,29.68,West,268,0.0,0.0,91,0.00,,,0.00,0,WeatherCatV1.02B3,2013-08-11 08:56:00,
2013-08-11 02:01:00,53.5,51.2,29.68,West,268,0.0,0.0,92,0.00,,,0.00,0,WeatherCatV1.02B3,2013-08-11 09:01:00,
2013-08-11 02:06:00,53.3,50.7,29.68,West,268,0.0,0.0,91,0.00,,,0.00,0,WeatherCatV1.02B3,2013-08-11 09:06:00,
2013-08-11 02:11:00,53.2,50.9,29.68,West,268,0.0,0.0,92,0.00,,,0.00,0,WeatherCatV1.02B3,2013-08-11 09:11:00,
2013-08-11 02:16:00,52.9,50.6,29.68,West,268,0.0,0.0,92,0.00,,,0.00,0,WeatherCatV1.02B3,2013-08-11 09:16:00,
2013-08-11 02:21:00,53.3,51.3,29.68,West,268,0.0,0.0,93,0.00,,,0.00,0,WeatherCatV1.02B3,2013-08-11 09:21:00,
2013-08-11 02:26:00,53.3,51.0,29.68,West,268,0.0,0.0,92,0.00,,,0.00,0,WeatherCatV1.02B3,2013-08-11 09:26:00,
2013-08-11 02:31:00,52.7,50.4,29.68,West,268,0.0,0.0,92,0.00,,,0.00,0,WeatherCatV1.02B3,2013-08-11 09:31:00,
2013-08-11 02:36:00,52.8,50.8,29.68,West,268,0.0,0.0,93,0.00,,,0.00,0,WeatherCatV1.02B3,2013-08-11 09:36:00,
2013-08-11 02:41:00,52.9,50.9,29.68,West,268,0.0,0.0,93,0.00,,,0.00,0,WeatherCatV1.02B3,2013-08-11 09:41:00,
2013-08-11 02:46:00,52.6,50.6,29.68,West,268,0.0,0.0,93,0.00,,,0.00,0,WeatherCatV1.02B3,2013-08-11 09:46:00,
2013-08-11 02:51:00,52.5,50.5,29.68,West,268,0.0,0.0,93,0.00,,,0.00,0,WeatherCatV1.02B3,2013-08-11 09:51:00,
2013-08-11 02:56:00,52.7,50.7,29.68,West,268,0.0,0.0,93,0.00,,,0.00,0,WeatherCatV1.02B3,2013-08-11 09:56:00,
2013-08-11 03:01:00,52.6,50.6,29.68,West,268,0.0,0.0,93,0.00,,,0.00,0,WeatherCatV1.02B3,2013-08-11 10:01:00,
2013-08-11 03:06:00,52.6,50.6,29.68,West,268,0.0,0.0,93,0.00,,,0.00,0,WeatherCatV1.02B3,2013-08-11 10:06:00,
2013-08-11 03:11:00,52.6,50.6,29.68,NW,308,0.0,1.0,93,0.00,,,0.00,0,WeatherCatV1.02B3,2013-08-11 10:11:00,
2013-08-11 03:12:00,52.7,50.7,29.68,NW,308,0.0,0.0,93,0.00,,,0.00,0,WeatherCatV1.02B3,2013-08-11 10:12:00,
2013-08-11 03:17:00,53.1,51.1,29.68,NW,308,0.0,0.0,93,0.00,,,0.00,0,WeatherCatV1.02B3,2013-08-11 10:17:00,
2013-08-11 03:22:00,52.8,50.8,29.68,NW,308,0.0,0.0,93,0.00,,,0.00,0,WeatherCatV1.02B3,2013-08-11 10:22:00,
2013-08-11 03:27:00,52.6,50.6,29.68,NW,308,0.0,0.0,93,0.00,,,0.00,0,WeatherCatV1.02B3,2013-08-11 10:27:00,
2013-08-11 03:32:00,52.1,49.8,29.68,NW,308,0.0,0.0,92,0.00,,,0.00,0,WeatherCatV1.02B3,2013-08-11 10:32:00,
2013-08-11 03:37:00,52.0,50.0,29.68,NW,308,0.0,0.0,93,0.00,,,0.00,0,WeatherCatV1.02B3,2013-08-11 10:37:00,
2013-08-11 03:42:00,51.9,49.9,29.68,NW,308,0.0,0.0,93,0.00,,,0.00,0,WeatherCatV1.02B3,2013-08-11 10:42:00,
2013-08-11 03:47:00,52.1,50.1,29.68,NW,308,0.0,0.0,93,0.00,,,0.00,0,WeatherCatV1.02B3,2013-08-11 10:47:00,
2013-08-11 03:52:00,51.5,49.3,29.68,NW,308,0.0,0.0,92,0.00,,,0.00,0,WeatherCatV1.02B3,2013-08-11 10:52:00,
2013-08-11 03:57:00,51.6,49.6,29.68,NW,308,0.0,0.0,93,0.00,,,0.00,0,WeatherCatV1.02B3,2013-08-11 10:57:00,
2013-08-11 04:02:00,51.5,49.3,29.68,NW,308,0.0,0.0,92,0.00,,,0.00,0,WeatherCatV1.02B3,2013-08-11 11:02:00,
2013-08-11 04:07:00,51.1,49.1,29.68,NW,308,0.0,0.0,93,0.00,,,0.00,0,WeatherCatV1.02B3,2013-08-11 11:07:00,
2013-08-11 04:12:00,51.5,49.5,29.68,NW,308,0.0,0.0,93,0.00,,,0.00,0,WeatherCatV1.02B3,2013-08-11 11:12:00,
2013-08-11 04:17:00,51.7,49.7,29.68,NW,308,0.0,0.0,93,0.00,,,0.00,0,WeatherCatV1.02B3,2013-08-11 11:17:00,
2013-08-11 04:22:00,51.3,49.3,29.68,NW,308,0.0,1.0,93,0.00,,,0.00,0,WeatherCatV1.02B3,2013-08-11 11:22:00,
2013-08-11 04:27:00,51.5,49.5,29.68,NW,308,0.0,0.0,93,0.00,,,0.00,0,WeatherCatV1.02B3,2013-08-11 11:27:00,
2013-08-11 04:32:00,51.5,49.5,29.68,NW,308,0.0,0.0,93,0.00,,,0.00,0,WeatherCatV1.02B3,2013-08-11 11:32:00,
2013-08-11 04:37:00,51.1,49.1,29.68,NW,308,0.0,0.0,93,0.00,,,0.00,0,WeatherCatV1.02B3,2013-08-11 11:37:00,
2013-08-11 04:42:00,51.3,49.6,29.68,NW,308,0.0,0.0,94,0.00,,,0.00,0,WeatherCatV1.02B3,2013-08-11 11:42:00,
2013-08-11 04:47:00,51.0,49.0,29.68,NW,308,0.0,0.0,93,0.00,,,0.00,0,WeatherCatV1.02B3,2013-08-11 11:47:00,
2013-08-11 04:52:00,50.6,48.7,29.68,NW,308,0.0,0.0,93,0.00,,,0.00,0,WeatherCatV1.02B3,2013-08-11 11:52:00,
2013-08-11 04:57:00,51.0,49.3,29.68,NW,308,0.0,0.0,94,0.00,,,0.00,0,WeatherCatV1.02B3,2013-08-11 11:57:00,
2013-08-11 05:02:00,51.4,49.7,29.68,NW,308,0.0,0.0,94,0.00,,,0.00,0,WeatherCatV1.02B3,2013-08-11 12:02:00,
2013-08-11 05:07:00,51.3,49.6,29.68,NW,308,0.0,0.0,94,0.00,,,0.00,0,WeatherCatV1.02B3,2013-08-11 12:07:00,
2013-08-11 05:12:00,50.9,48.9,29.68,NW,308,0.0,0.0,93,0.00,,,0.00,0,WeatherCatV1.02B3,2013-08-11 12:12:00,
2013-08-11 05:17:00,50.9,49.2,29.68,NW,308,0.0,0.0,94,0.00,,,0.00,0,WeatherCatV1.02B3,2013-08-11 12:17:00,
2013-08-11 05:22:00,50.9,49.2,29.68,NW,308,0.0,0.0,94,0.00,,,0.00,0,WeatherCatV1.02B3,2013-08-11 12:22:00,
2013-08-11 05:27:00,50.8,49.1,29.68,NW,308,0.0,0.0,94,0.00,,,0.00,0,WeatherCatV1.02B3,2013-08-11 12:27:00,
2013-08-11 05:32:00,50.3,48.6,29.68,NW,308,0.0,0.0,94,0.00,,,0.00,0,WeatherCatV1.02B3,2013-08-11 12:32:00,
2013-08-11 05:37:00,50.4,48.7,29.68,NW,308,0.0,0.0,94,0.00,,,0.00,0,WeatherCatV1.02B3,2013-08-11 12:37:00,
2013-08-11 05:42:00,50.8,49.1,29.68,NW,308,0.0,0.0,94,0.00,,,0.00,0,WeatherCatV1.02B3,2013-08-11 12:42:00,
2013-08-11 05:47:00,50.6,48.9,29.68,NW,308,0.0,0.0,94,0.00,,,0.00,0,WeatherCatV1.02B3,2013-08-11 12:47:00,
2013-08-11 05:52:00,50.7,49.0,29.68,NW,308,0.0,0.0,94,0.00,,,0.00,0,WeatherCatV1.02B3,2013-08-11 12:52:00,
2013-08-11 05:57:00,51.3,49.6,29.68,NW,308,0.0,0.0,94,0.00,,,0.00,0,WeatherCatV1.02B3,2013-08-11 12:57:00,
2013-08-11 06:02:00,51.6,49.9,29.68,NW,308,0.0,0.0,94,0.00,,,0.00,0,WeatherCatV1.02B3,2013-08-11 13:02:00,
2013-08-11 06:07:00,52.0,50.3,29.68,NW,308,0.0,0.0,94,0.00,,,0.00,0,WeatherCatV1.02B3,2013-08-11 13:07:00,
2013-08-11 06:12:00,52.1,50.4,29.68,NW,308,0.0,0.0,94,0.00,,,0.00,0,WeatherCatV1.02B3,2013-08-11 13:12:00,
2013-08-11 06:17:00,51.9,50.2,29.68,NW,308,0.0,0.0,94,0.00,,,0.00,0,WeatherCatV1.02B3,2013-08-11 13:17:00,
2013-08-11 06:22:00,51.9,50.2,29.68,NW,308,0.0,0.0,94,0.00,,,0.00,0,WeatherCatV1.02B3,2013-08-11 13:22:00,
2013-08-11 06:27:00,52.0,50.3,29.68,NW,308,0.0,0.0,94,0.00,,,0.00,5,WeatherCatV1.02B3,2013-08-11 13:27:00,
2013-08-11 06:32:00,52.3,50.6,29.68,NW,308,0.0,0.0,94,0.00,,,0.00,7,WeatherCatV1.02B3,2013-08-11 13:32:00,
2013-08-11 06:37:00,52.7,51.3,29.68,NW,308,0.0,0.0,95,0.00,,,0.00,9,WeatherCatV1.02B3,2013-08-11 13:37:00,
2013-08-11 06:42:00,52.8,51.1,29.68,NW,308,0.0,0.0,94,0.00,,,0.00,14,WeatherCatV1.02B3,2013-08-11 13:42:00,
2013-08-11 06:47:00,53.0,51.6,29.68,NW,308,0.0,0.0,95,0.00,,,0.00,18,WeatherCatV1.02B3,2013-08-11 13:47:00,
2013-08-11 06:52:00,53.2,51.8,29.68,NW,308,0.0,0.0,95,0.00,,,0.00,25,WeatherCatV1.02B3,2013-08-11 13:52:00,
2013-08-11 06:57:00,53.3,51.9,29.68,NW,308,0.0,0.0,95,0.00,,,0.00,30,WeatherCatV1.02B3,2013-08-11 13:57:00,
2013-08-11 07:02:00,53.4,52.0,29.68,NW,308,0.0,0.0,95,0.00,,,0.00,32,WeatherCatV1.02B3,2013-08-11 14:02:00,
2013-08-11 07:07:00,53.6,52.2,29.68,NW,308,0.0,0.0,95,0.00,,,0.00,33,WeatherCatV1.02B3,2013-08-11 14:07:00,
2013-08-11 07:12:00,54.0,52.6,29.68,NW,308,0.0,0.0,95,0.00,,,0.00,44,WeatherCatV1.02B3,2013-08-11 14:12:00,
2013-08-11 07:17:00,54.2,52.8,29.68,NW,308,0.0,0.0,95,0.00,,,0.00,35,WeatherCatV1.02B3,2013-08-11 14:17:00,
2013-08-11 07:22:00,54.3,52.9,29.68,NW,308,0.0,0.0,95,0.00,,,0.00,46,WeatherCatV1.02B3,2013-08-11 14:22:00,
2013-08-11 07:27:00,54.6,53.2,29.68,NW,308,0.0,0.0,95,0.00,,,0.00,70,WeatherCatV1.02B3,2013-08-11 14:27:00,
2013-08-11 07:28:00,54.6,53.2,29.68,NW,308,0.0,0.0,95,0.00,,,0.00,67,WeatherCatV1.02B3,2013-08-11 14:28:00,
2013-08-11 07:33:00,54.8,53.4,29.68,NW,308,0.0,0.0,95,0.00,,,0.00,81,WeatherCatV1.02B3,2013-08-11 14:33:00,
2013-08-11 07:38:00,55.1,53.7,29.68,NW,308,0.0,1.0,95,0.00,,,0.00,90,WeatherCatV1.02B3,2013-08-11 14:38:00,
2013-08-11 07:43:00,55.1,53.7,29.68,NW,308,0.0,0.0,95,0.00,,,0.00,81,WeatherCatV1.02B3,2013-08-11 14:43:00,
2013-08-11 07:48:00,55.5,54.1,29.68,NW,308,0.0,0.0,95,0.00,,,0.00,90,WeatherCatV1.02B3,2013-08-11 14:48:00,
2013-08-11 07:53:00,56.0,54.6,29.68,NW,314,0.0,0.0,95,0.00,,,0.00,102,WeatherCatV1.02B3,2013-08-11 14:53:00,
2013-08-11 07:58:00,56.0,54.6,29.68,NW,314,0.0,0.0,95,0.00,,,0.00,123,WeatherCatV1.02B3,2013-08-11 14:58:00,
2013-08-11 08:03:00,56.3,54.9,29.68,NW,314,0.0,1.0,95,0.00,,,0.00,151,WeatherCatV1.02B3,2013-08-11 15:03:00,
2013-08-11 08:08:00,56.4,55.0,29.68,NW,314,0.0,0.0,95,0.00,,,0.00,149,WeatherCatV1.02B3,2013-08-11 15:08:00,
2013-08-11 08:13:00,56.7,55.0,29.68,NW,314,0.0,1.0,94,0.00,,,0.00,151,WeatherCatV1.02B3,2013-08-11 15:13:00,
2013-08-11 08:18:00,57.1,55.7,29.68,NW,314,0.0,1.0,95,0.00,,,0.00,257,WeatherCatV1.02B3,2013-08-11 15:18:00,
2013-08-11 08:23:00,57.7,56.0,29.68,NW,314,2.0,2.0,94,0.00,,,0.00,360,WeatherCatV1.02B3,2013-08-11 15:23:00,
2013-08-11 08:28:00,59.1,57.7,29.68,WSW,249,3.0,4.0,95,0.00,,,0.00,367,WeatherCatV1.02B3,2013-08-11 15:28:00,
2013-08-11 08:33:00,59.9,57.6,29.68,WSW,252,0.0,0.0,92,0.00,,,0.00,378,WeatherCatV1.02B3,2013-08-11 15:33:00,
2013-08-11 08:38:00,60.2,57.6,29.68,NNE,31,0.0,1.0,91,0.00,,,0.00,455,WeatherCatV1.02B3,2013-08-11 15:38:00,
2013-08-11 08:43:00,61.3,57.7,29.68,ESE,113,1.0,2.0,88,0.00,,,0.00,540,WeatherCatV1.02B3,2013-08-11 15:43:00,
2013-08-11 08:48:00,62.7,58.4,29.68,SSE,167,1.0,4.0,86,0.00,,,0.00,420,WeatherCatV1.02B3,2013-08-11 15:48:00,
2013-08-11 08:53:00,62.1,57.5,29.68,West,261,0.0,2.0,85,0.00,,,0.00,364,WeatherCatV1.02B3,2013-08-11 15:53:00,
2013-08-11 08:58:00,62.6,58.3,29.68,WNW,299,2.0,4.0,86,0.00,,,0.00,200,WeatherCatV1.02B3,2013-08-11 15:58:00,
2013-08-11 09:03:00,62.3,57.7,29.68,WNW,301,1.0,3.0,85,0.00,,,0.00,548,WeatherCatV1.02B3,2013-08-11 16:03:00,
2013-08-11 09:08:00,63.0,58.1,29.68,West,265,1.0,6.0,84,0.00,,,0.00,587,WeatherCatV1.02B3,2013-08-11 16:08:00,
2013-08-11 09:13:00,63.9,59.0,29.68,NW,320,0.0,3.0,84,0.00,,,0.00,596,WeatherCatV1.02B3,2013-08-11 16:13:00,
2013-08-11 09:18:00,64.5,59.2,29.68,NE,56,0.0,3.0,83,0.00,,,0.00,580,WeatherCatV1.02B3,2013-08-11 16:18:00,
2013-08-11 09:23:00,64.8,58.8,29.68,SSE,150,0.0,2.0,81,0.00,,,0.00,568,WeatherCatV1.02B3,2013-08-11 16:23:00,
2013-08-11 09:28:00,64.9,58.9,29.68,South,189,0.0,4.0,81,0.00,,,0.00,550,WeatherCatV1.02B3,2013-08-11 16:28:00,
2013-08-11 09:33:00,65.4,59.1,29.68,West,261,3.0,3.0,80,0.00,,,0.00,563,WeatherCatV1.02B3,2013-08-11 16:33:00,
2013-08-11 09:38:00,65.4,58.7,29.68,WSW,248,0.0,3.0,79,0.00,,,0.00,568,WeatherCatV1.02B3,2013-08-11 16:38:00,
2013-08-11 09:43:00,65.7,59.0,29.68,West,269,2.0,3.0,79,0.00,,,0.00,578,WeatherCatV1.02B3,2013-08-11 16:43:00,
2013-08-11 09:48:00,66.2,59.5,29.68,WNW,291,3.0,5.0,79,0.00,,,0.00,594,WeatherCatV1.02B3,2013-08-11 16:48:00,
2013-08-11 09:53:00,66.6,59.2,29.68,SW,236,0.0,3.0,77,0.00,,,0.00,610,WeatherCatV1.02B3,2013-08-11 16:53:00,
2013-08-11 09:58:00,67.4,59.6,29.68,SW,228,0.0,2.0,76,0.00,,,0.00,626,WeatherCatV1.02B3,2013-08-11 16:58:00,
2013-08-11 10:03:00,67.4,59.6,29.68,NNE,22,0.0,3.0,76,0.00,,,0.00,640,WeatherCatV1.02B3,2013-08-11 17:03:00,
2013-08-11 10:08:00,68.2,60.0,29.68,SE,124,0.0,1.0,75,0.00,,,0.00,652,WeatherCatV1.02B3,2013-08-11 17:08:00,
2013-08-11 10:13:00,69.2,60.5,29.68,WNW,294,4.0,5.0,74,0.00,,,0.00,664,WeatherCatV1.02B3,2013-08-11 17:13:00,
2013-08-11 10:18:00,70.1,60.2,29.68,West,263,3.0,4.0,71,0.00,,,0.00,677,WeatherCatV1.02B3,2013-08-11 17:18:00,
2013-08-11 10:23:00,70.7,60.0,29.68,SW,224,3.0,4.0,69,0.00,,,0.00,689,WeatherCatV1.02B3,2013-08-11 17:23:00,
2013-08-11 10:28:00,71.5,60.0,29.68,West,280,3.0,3.0,67,0.00,,,0.00,703,WeatherCatV1.02B3,2013-08-11 17:28:00,
2013-08-11 10:33:00,72.3,59.9,29.68,WNW,283,3.0,3.0,65,0.00,,,0.00,714,WeatherCatV1.02B3,2013-08-11 17:33:00,
2013-08-11 10:38:00,73.1,61.0,29.68,WNW,300,2.0,6.0,66,0.00,,,0.00,726,WeatherCatV1.02B3,2013-08-11 17:38:00,
2013-08-11 10:43:00,72.9,60.0,29.68,WNW,294,4.0,5.0,64,0.00,,,0.00,735,WeatherCatV1.02B3,2013-08-11 17:43:00,
2013-08-11 10:48:00,73.7,60.7,29.68,NW,309,0.0,4.0,64,0.00,,,0.00,745,WeatherCatV1.02B3,2013-08-11 17:48:00,
2013-08-11 10:53:00,74.2,59.9,29.68,West,272,1.0,4.0,61,0.00,,,0.00,754,WeatherCatV1.02B3,2013-08-11 17:53:00,
2013-08-11 10:58:00,74.7,60.3,29.68,WNW,297,4.0,6.0,61,0.00,,,0.00,765,WeatherCatV1.02B3,2013-08-11 17:58:00,
2013-08-11 11:03:00,74.9,60.5,29.68,NW,306,3.0,8.0,61,0.00,,,0.00,775,WeatherCatV1.02B3,2013-08-11 18:03:00,
2013-08-11 11:08:00,75.6,61.2,29.68,West,281,3.0,6.0,61,0.00,,,0.00,786,WeatherCatV1.02B3,2013-08-11 18:08:00,
2013-08-11 11:13:00,75.7,60.3,29.68,West,278,5.0,7.0,59,0.00,,,0.00,791,WeatherCatV1.02B3,2013-08-11 18:13:00,
2013-08-11 11:18:00,75.4,60.5,29.68,WNW,294,0.0,4.0,60,0.00,,,0.00,805,WeatherCatV1.02B3,2013-08-11 18:18:00,
2013-08-11 11:23:00,76.9,60.5,29.68,NW,305,3.0,6.0,57,0.00,,,0.00,809,WeatherCatV1.02B3,2013-08-11 18:23:00,
2013-08-11 11:28:00,76.9,60.5,29.68,WNW,298,4.0,7.0,57,0.00,,,0.00,819,WeatherCatV1.02B3,2013-08-11 18:28:00,
2013-08-11 11:33:00,76.4,60.0,29.68,WNW,298,2.0,8.0,57,0.00,,,0.00,828,WeatherCatV1.02B3,2013-08-11 18:33:00,
2013-08-11 11:38:00,76.3,59.9,29.68,NW,307,2.0,3.0,57,0.00,,,0.00,835,WeatherCatV1.02B3,2013-08-11 18:38:00,
2013-08-11 11:43:00,78.1,60.6,29.68,East,91,3.0,6.0,55,0.00,,,0.00,840,WeatherCatV1.02B3,2013-08-11 18:43:00,
2013-08-11 11:48:00,78.7,60.1,29.68,East,100,3.0,6.0,53,0.00,,,0.00,849,WeatherCatV1.02B3,2013-08-11 18:48:00,
2013-08-11 11:53:00,79.3,60.1,29.68,WSW,257,5.0,5.0,52,0.00,,,0.00,854,WeatherCatV1.02B3,2013-08-11 18:53:00,
2013-08-11 11:58:00,80.2,60.4,29.68,West,267,4.0,4.0,51,0.00,,,0.00,861,WeatherCatV1.02B3,2013-08-11 18:58:00,
2013-08-11 12:03:00,79.1,59.9,29.68,ENE,59,1.0,3.0,52,0.00,,,0.00,863,WeatherCatV1.02B3,2013-08-11 19:03:00,
2013-08-11 12:09:00,80.3,60.5,29.68,WNW,289,2.0,3.0,51,0.00,,,0.00,874,WeatherCatV1.02B3,2013-08-11 19:09:00,
2013-08-11 12:13:00,79.4,59.7,29.68,WNW,291,3.0,8.0,51,0.00,,,0.00,875,WeatherCatV1.02B3,2013-08-11 19:13:00,
2013-08-11 12:19:00,78.8,59.7,29.68,ENE,67,0.0,6.0,52,0.00,,,0.00,875,WeatherCatV1.02B3,2013-08-11 19:19:00,
2013-08-11 12:24:00,79.0,59.8,29.68,North,5,1.0,3.0,52,0.00,,,0.00,875,WeatherCatV1.02B3,2013-08-11 19:24:00,
2013-08-11 12:29:00,79.6,60.4,29.68,West,275,1.0,7.0,52,0.00,,,0.00,884,WeatherCatV1.02B3,2013-08-11 19:29:00,
2013-08-11 12:34:00,79.9,59.6,29.68,WNW,290,5.0,7.0,50,0.00,,,0.00,884,WeatherCatV1.02B3,2013-08-11 19:34:00,
2013-08-11 12:39:00,79.6,59.9,29.68,NW,308,0.0,7.0,51,0.00,,,0.00,886,WeatherCatV1.02B3,2013-08-11 19:39:00,
2013-08-11 12:44:00,80.1,60.9,29.68,West,276,3.0,10.0,52,0.00,,,0.00,886,WeatherCatV1.02B3,2013-08-11 19:44:00,
2013-08-11 12:49:00,79.8,60.6,29.68,WSW,254,4.0,5.0,52,0.00,,,0.00,889,WeatherCatV1.02B3,2013-08-11 19:49:00,
2013-08-11 12:54:00,79.3,59.6,29.68,West,276,6.0,8.0,51,0.00,,,0.00,891,WeatherCatV1.02B3,2013-08-11 19:54:00,
2013-08-11 12:59:00,79.8,60.0,29.68,West,274,4.0,7.0,51,0.00,,,0.00,889,WeatherCatV1.02B3,2013-08-11 19:59:00,
2013-08-11 13:04:00,80.3,59.9,29.68,WNW,300,6.0,7.0,50,0.00,,,0.00,889,WeatherCatV1.02B3,2013-08-11 20:04:00,
2013-08-11 13:09:00,80.3,59.4,29.68,NNE,15,2.0,6.0,49,0.00,,,0.00,891,WeatherCatV1.02B3,2013-08-11 20:09:00,
2013-08-11 13:14:00,81.6,60.0,29.68,WSW,240,7.0,9.0,48,0.00,,,0.00,891,WeatherCatV1.02B3,2013-08-11 20:14:00,
2013-08-11 13:19:00,81.5,59.3,29.68,WNW,299,4.0,6.0,47,0.00,,,0.00,888,WeatherCatV1.02B3,2013-08-11 20:19:00,
2013-08-11 13:24:00,81.6,59.4,29.68,WSW,257,2.0,7.0,47,0.00,,,0.00,886,WeatherCatV1.02B3,2013-08-11 20:24:00,
2013-08-11 13:29:00,81.5,59.9,29.68,West,273,3.0,5.0,48,0.00,,,0.00,884,WeatherCatV1.02B3,2013-08-11 20:29:00,
2013-08-11 13:34:00,81.1,58.9,29.68,WSW,242,1.0,7.0,47,0.00,,,0.00,884,WeatherCatV1.02B3,2013-08-11 20:34:00,
2013-08-11 13:39:00,81.0,59.4,29.68,West,267,4.0,8.0,48,0.00,,,0.00,881,WeatherCatV1.02B3,2013-08-11 20:39:00,
2013-08-11 13:44:00,81.5,59.9,29.68,West,279,2.0,8.0,48,0.00,,,0.00,877,WeatherCatV1.02B3,2013-08-11 20:44:00,
2013-08-11 13:49:00,81.2,59.6,29.68,West,276,4.0,7.0,48,0.00,,,0.00,872,WeatherCatV1.02B3,2013-08-11 20:49:00,
2013-08-11 13:54:00,81.1,58.9,29.68,West,273,4.0,8.0,47,0.00,,,0.00,870,WeatherCatV1.02B3,2013-08-11 20:54:00,
2013-08-11 13:59:00,81.2,59.6,29.68,West,270,5.0,6.0,48,0.00,,,0.00,867,WeatherCatV1.02B3,2013-08-11 20:59:00,
2013-08-11 14:04:00,81.6,60.0,29.68,WNW,286,2.0,8.0,48,0.00,,,0.00,860,WeatherCatV1.02B3,2013-08-11 21:04:00,
2013-08-11 14:09:00,82.0,59.8,29.68,WSW,257,4.0,8.0,47,0.00,,,0.00,856,WeatherCatV1.02B3,2013-08-11 21:09:00,
2013-08-11 14:14:00,81.7,59.5,29.68,WNW,286,7.0,8.0,47,0.00,,,0.00,853,WeatherCatV1.02B3,2013-08-11 21:14:00,
2013-08-11 14:19:00,82.2,59.9,29.68,WSW,244,5.0,6.0,47,0.00,,,0.00,842,WeatherCatV1.02B3,2013-08-11 21:19:00,
2013-08-11 14:24:00,82.9,59.3,29.68,NW,317,3.0,5.0,45,0.00,,,0.00,838,WeatherCatV1.02B3,2013-08-11 21:24:00,
2013-08-11 14:29:00,82.7,59.2,29.68,WNW,302,3.0,6.0,45,0.00,,,0.00,833,WeatherCatV1.02B3,2013-08-11 21:29:00,
2013-08-11 14:34:00,81.9,59.1,29.68,South,173,2.0,6.0,46,0.00,,,0.00,828,WeatherCatV1.02B3,2013-08-11 21:34:00,
2013-08-11 14:39:00,82.5,58.4,29.68,West,260,2.0,4.0,44,0.00,,,0.00,821,WeatherCatV1.02B3,2013-08-11 21:39:00,
2013-08-11 14:44:00,83.1,58.9,29.68,WNW,299,0.0,1.0,44,0.00,,,0.00,812,WeatherCatV1.02B3,2013-08-11 21:44:00,
2013-08-11 14:49:00,84.3,58.0,29.68,NNW,343,2.0,5.0,41,0.00,,,0.00,802,WeatherCatV1.02B3,2013-08-11 21:49:00,
2013-08-11 14:54:00,84.0,58.4,29.68,North,349,1.0,4.0,42,0.00,,,0.00,793,WeatherCatV1.02B3,2013-08-11 21:54:00,
2013-08-11 14:59:00,83.8,58.9,29.68,West,279,4.0,5.0,43,0.00,,,0.00,788,WeatherCatV1.02B3,2013-08-11 21:59:00,
2013-08-11 15:04:00,82.8,57.3,29.68,North,355,4.0,5.0,42,0.00,,,0.00,777,WeatherCatV1.02B3,2013-08-11 22:04:00,
2013-08-11 15:09:00,82.1,58.6,29.68,WNW,290,5.0,9.0,45,0.00,,,0.00,768,WeatherCatV1.02B3,2013-08-11 22:09:00,
2013-08-11 15:14:00,81.8,59.0,29.68,West,277,5.0,8.0,46,0.00,,,0.00,756,WeatherCatV1.02B3,2013-08-11 22:14:00,
2013-08-11 15:19:00,81.5,58.7,29.68,WNW,288,4.0,9.0,46,0.00,,,0.00,745,WeatherCatV1.02B3,2013-08-11 22:19:00,
2013-08-11 15:24:00,82.0,59.1,29.68,NW,310,4.0,9.0,46,0.00,,,0.00,735,WeatherCatV1.02B3,2013-08-11 22:24:00,
2013-08-11 15:29:00,81.6,58.2,29.68,West,274,4.0,8.0,45,0.00,,,0.00,724,WeatherCatV1.02B3,2013-08-11 22:29:00,
2013-08-11 15:34:00,81.0,58.2,29.68,West,266,5.0,9.0,46,0.00,,,0.00,708,WeatherCatV1.02B3,2013-08-11 22:34:00,
2013-08-11 15:39:00,81.4,58.6,29.68,WSW,249,3.0,8.0,46,0.00,,,0.00,700,WeatherCatV1.02B3,2013-08-11 22:39:00,
2013-08-11 15:44:00,81.5,59.3,29.68,West,278,4.0,9.0,47,0.00,,,0.00,684,WeatherCatV1.02B3,2013-08-11 22:44:00,
2013-08-11 15:49:00,80.7,59.2,29.68,WNW,298,4.0,6.0,48,0.00,,,0.00,673,WeatherCatV1.02B3,2013-08-11 22:49:00,
2013-08-11 15:54:00,80.8,58.7,29.68,WNW,286,3.0,10.0,47,0.00,,,0.00,659,WeatherCatV1.02B3,2013-08-11 22:54:00,
2013-08-11 15:59:00,80.9,58.8,29.68,West,275,3.0,8.0,47,0.00,,,0.00,647,WeatherCatV1.02B3,2013-08-11 22:59:00,
2013-08-11 16:04:00,80.3,58.8,29.68,WNW,296,3.0,8.0,48,0.00,,,0.00,633,WeatherCatV1.02B3,2013-08-11 23:04:00,
2013-08-11 16:09:00,80.4,58.9,29.68,WNW,284,4.0,6.0,48,0.00,,,0.00,621,WeatherCatV1.02B3,2013-08-11 23:09:00,
2013-08-11 16:14:00,80.1,59.2,29.68,NNW,330,3.0,8.0,49,0.00,,,0.00,605,WeatherCatV1.02B3,2013-08-11 23:14:00,
2013-08-11 16:19:00,79.9,59.0,29.68,WNW,296,3.0,6.0,49,0.00,,,0.00,591,WeatherCatV1.02B3,2013-08-11 23:19:00,
2013-08-11 16:24:00,80.1,59.2,29.68,West,273,3.0,7.0,49,0.00,,,0.00,578,WeatherCatV1.02B3,2013-08-11 23:24:00,
2013-08-11 16:29:00,80.0,59.1,29.68,SSW,192,0.0,5.0,49,0.00,,,0.00,564,WeatherCatV1.02B3,2013-08-11 23:29:00,
2013-08-11 16:34:00,80.2,59.8,29.68,NNW,346,0.0,3.0,50,0.00,,,0.00,550,WeatherCatV1.02B3,2013-08-11 23:34:00,
2013-08-11 16:39:00,80.0,59.1,29.68,West,271,1.0,7.0,49,0.00,,,0.00,536,WeatherCatV1.02B3,2013-08-11 23:39:00,
2013-08-11 16:44:00,80.0,59.7,29.68,West,268,5.0,5.0,50,0.00,,,0.00,522,WeatherCatV1.02B3,2013-08-11 23:44:00,
2013-08-11 16:49:00,79.5,59.2,29.68,WNW,284,4.0,4.0,50,0.00,,,0.00,506,WeatherCatV1.02B3,2013-08-11 23:49:00,
2013-08-11 16:54:00,79.7,59.4,29.68,West,270,1.0,4.0,50,0.00,,,0.00,489,WeatherCatV1.02B3,2013-08-11 23:54:00,
2013-08-11 16:59:00,79.5,59.2,29.68,West,270,5.0,6.0,50,0.00,,,0.00,476,WeatherCatV1.02B3,2013-08-11 23:59:00,
2013-08-11 17:04:00,79.8,59.5,29.68,NW,313,1.0,5.0,50,0.00,,,0.00,459,WeatherCatV1.02B3,2013-08-12 00:04:00,
2013-08-11 17:09:00,79.6,59.3,29.68,West,277,4.0,8.0,50,0.00,,,0.00,445,WeatherCatV1.02B3,2013-08-12 00:09:00,
2013-08-11 17:14:00,79.7,59.4,29.68,SW,226,0.0,4.0,50,0.00,,,0.00,427,WeatherCatV1.02B3,2013-08-12 00:14:00,
2013-08-11 17:19:00,79.7,58.2,29.68,West,267,1.0,6.0,48,0.00,,,0.00,413,WeatherCatV1.02B3,2013-08-12 00:19:00,
2013-08-11 17:24:00,79.1,58.8,29.68,NW,315,1.0,4.0,50,0.00,,,0.00,396,WeatherCatV1.02B3,2013-08-12 00:24:00,
2013-08-11 17:29:00,79.3,59.0,29.68,West,267,4.0,6.0,50,0.00,,,0.00,378,WeatherCatV1.02B3,2013-08-12 00:29:00,
2013-08-11 17:34:00,79.1,58.8,29.68,West,279,5.0,6.0,50,0.00,,,0.00,362,WeatherCatV1.02B3,2013-08-12 00:34:00,
2013-08-11 17:39:00,78.9,58.7,29.68,West,269,1.0,3.0,50,0.00,,,0.00,350,WeatherCatV1.02B3,2013-08-12 00:39:00,
2013-08-11 17:44:00,78.7,59.0,29.68,West,270,2.0,4.0,51,0.00,,,0.00,332,WeatherCatV1.02B3,2013-08-12 00:44:00,
2013-08-11 17:49:00,78.5,59.4,29.68,WNW,295,3.0,4.0,52,0.00,,,0.00,316,WeatherCatV1.02B3,2013-08-12 00:49:00,
2013-08-11 17:54:00,77.8,58.7,29.68,West,263,6.0,6.0,52,0.00,,,0.00,299,WeatherCatV1.02B3,2013-08-12 00:54:00,
2013-08-11 17:59:00,77.4,58.9,29.68,WNW,300,3.0,4.0,53,0.00,,,0.00,281,WeatherCatV1.02B3,2013-08-12 00:59:00,
2013-08-11 18:04:00,76.9,59.0,29.68,West,267,3.0,6.0,54,0.00,,,0.00,267,WeatherCatV1.02B3,2013-08-12 01:04:00,
2013-08-11 18:09:00,76.5,58.6,29.68,West,264,3.0,5.0,54,0.00,,,0.00,250,WeatherCatV1.02B3,2013-08-12 01:09:00,
2013-08-11 18:14:00,76.3,58.9,29.68,West,268,4.0,6.0,55,0.00,,,0.00,232,WeatherCatV1.02B3,2013-08-12 01:14:00,
2013-08-11 18:19:00,75.7,58.4,29.68,West,278,3.0,6.0,55,0.00,,,0.00,220,WeatherCatV1.02B3,2013-08-12 01:19:00,
2013-08-11 18:24:00,75.3,58.5,29.68,West,267,4.0,7.0,56,0.00,,,0.00,202,WeatherCatV1.02B3,2013-08-12 01:24:00,
2013-08-11 18:29:00,75.0,58.7,29.68,West,259,4.0,6.0,57,0.00,,,0.00,183,WeatherCatV1.02B3,2013-08-12 01:29:00,
2013-08-11 18:34:00,74.8,58.5,29.68,West,269,4.0,6.0,57,0.00,,,0.00,163,WeatherCatV1.02B3,2013-08-12 01:34:00,
2013-08-11 18:39:00,74.6,58.8,29.68,West,273,3.0,5.0,58,0.00,,,0.00,144,WeatherCatV1.02B3,2013-08-12 01:39:00,
2013-08-11 18:44:00,74.3,58.5,29.68,WNW,285,3.0,6.0,58,0.00,,,0.00,125,WeatherCatV1.02B3,2013-08-12 01:44:00,
2013-08-11 18:49:00,74.0,58.7,29.68,WNW,291,3.0,4.0,59,0.00,,,0.00,105,WeatherCatV1.02B3,2013-08-12 01:49:00,
2013-08-11 18:54:00,73.4,58.7,29.68,West,262,3.0,5.0,60,0.00,,,0.00,33,WeatherCatV1.02B3,2013-08-12 01:54:00,
2013-08-11 18:59:00,72.7,58.0,29.68,West,261,2.0,5.0,60,0.00,,,0.00,30,WeatherCatV1.02B3,2013-08-12 01:59:00,
2013-08-11 19:04:00,72.3,58.1,29.68,West,265,3.0,4.0,61,0.00,,,0.00,26,WeatherCatV1.02B3,2013-08-12 02:04:00,
2013-08-11 19:09:00,72.0,58.3,29.68,WSW,256,4.0,5.0,62,0.00,,,0.00,25,WeatherCatV1.02B3,2013-08-12 02:09:00,
2013-08-11 19:14:00,71.7,58.4,29.68,WSW,254,2.0,3.0,63,0.00,,,0.00,21,WeatherCatV1.02B3,2013-08-12 02:14:00,
2013-08-11 19:19:00,71.3,58.0,29.68,WSW,255,3.0,3.0,63,0.00,,,0.00,19,WeatherCatV1.02B3,2013-08-12 02:19:00,
2013-08-11 19:24:00,70.8,58.4,29.68,West,280,2.0,3.0,65,0.00,,,0.00,16,WeatherCatV1.02B3,2013-08-12 02:24:00,
2013-08-11 19:29:00,70.2,58.3,29.68,West,279,0.0,2.0,66,0.00,,,0.00,14,WeatherCatV1.02B3,2013-08-12 02:29:00,
2013-08-11 19:34:00,69.8,58.3,29.68,WSW,251,2.0,3.0,67,0.00,,,0.00,12,WeatherCatV1.02B3,2013-08-12 02:34:00,
2013-08-11 19:39:00,69.1,58.1,29.68,West,271,0.0,1.0,68,0.00,,,0.00,9,WeatherCatV1.02B3,2013-08-12 02:39:00,
2013-08-11 19:44:00,68.4,57.8,29.68,West,271,1.0,3.0,69,0.00,,,0.00,5,WeatherCatV1.02B3,2013-08-12 02:44:00,
2013-08-11 19:49:00,68.1,57.9,29.68,West,263,0.0,2.0,70,0.00,,,0.00,0,WeatherCatV1.02B3,2013-08-12 02:49:00,
2013-08-11 19:54:00,67.7,57.9,29.68,West,263,0.0,1.0,71,0.00,,,0.00,0,WeatherCatV1.02B3,2013-08-12 02:54:00,
2013-08-11 19:59:00,67.4,58.0,29.68,West,263,0.0,0.0,72,0.00,,,0.00,0,WeatherCatV1.02B3,2013-08-12 02:59:00,
2013-08-11 20:04:00,66.9,57.6,29.68,West,263,0.0,1.0,72,0.00,,,0.00,0,WeatherCatV1.02B3,2013-08-12 03:04:00,
2013-08-11 20:09:00,66.5,57.6,29.68,West,263,0.0,0.0,73,0.00,,,0.00,0,WeatherCatV1.02B3,2013-08-12 03:09:00,
2013-08-11 20:14:00,66.3,57.8,29.68,West,263,0.0,0.0,74,0.00,,,0.00,0,WeatherCatV1.02B3,2013-08-12 03:14:00,
2013-08-11 20:19:00,66.2,57.7,29.68,West,260,0.0,0.0,74,0.00,,,0.00,0,WeatherCatV1.02B3,2013-08-12 03:19:00,
2013-08-11 20:24:00,65.5,57.0,29.68,West,260,0.0,0.0,74,0.00,,,0.00,0,WeatherCatV1.02B3,2013-08-12 03:24:00,
2013-08-11 20:29:00,65.1,57.3,29.68,West,260,0.0,0.0,76,0.00,,,0.00,0,WeatherCatV1.02B3,2013-08-12 03:29:00,
2013-08-11 20:34:00,64.9,57.1,29.68,West,260,0.0,0.0,76,0.00,,,0.00,0,WeatherCatV1.02B3,2013-08-12 03:34:00,
2013-08-11 20:39:00,64.7,57.3,29.68,West,260,0.0,0.0,77,0.00,,,0.00,0,WeatherCatV1.02B3,2013-08-12 03:39:00,
2013-08-11 20:44:00,63.9,56.2,29.68,West,260,0.0,0.0,76,0.00,,,0.00,0,WeatherCatV1.02B3,2013-08-12 03:44:00,
2013-08-11 20:50:00,63.0,56.0,29.68,West,260,0.0,0.0,78,0.00,,,0.00,0,WeatherCatV1.02B3,2013-08-12 03:50:00,
2013-08-11 20:55:00,62.8,55.8,29.68,West,260,0.0,0.0,78,0.00,,,0.00,0,WeatherCatV1.02B3,2013-08-12 03:55:00,
2013-08-11 21:00:00,62.9,56.3,29.68,West,260,0.0,0.0,79,0.00,,,0.00,0,WeatherCatV1.02B3,2013-08-12 04:00:00,
2013-08-11 21:01:00,62.9,56.3,29.68,West,260,0.0,0.0,79,0.00,,,0.00,0,WeatherCatV1.02B3,2013-08-12 04:01:00,
2013-08-11 21:06:00,62.5,55.9,29.68,West,260,0.0,0.0,79,0.00,,,0.00,0,WeatherCatV1.02B3,2013-08-12 04:06:00,
2013-08-11 21:11:00,62.1,55.9,29.68,West,260,0.0,0.0,80,0.00,,,0.00,0,WeatherCatV1.02B3,2013-08-12 04:11:00,
2013-08-11 21:16:00,61.9,55.7,29.68,West,260,0.0,0.0,80,0.00,,,0.00,0,WeatherCatV1.02B3,2013-08-12 04:16:00,
2013-08-11 21:21:00,61.8,55.9,29.68,West,260,0.0,0.0,81,0.00,,,0.00,0,WeatherCatV1.02B3,2013-08-12 04:21:00,
2013-08-11 21:26:00,61.8,55.9,29.68,West,260,0.0,0.0,81,0.00,,,0.00,0,WeatherCatV1.02B3,2013-08-12 04:26:00,
2013-08-11 21:31:00,61.3,55.4,29.68,West,260,0.0,0.0,81,0.00,,,0.00,0,WeatherCatV1.02B3,2013-08-12 04:31:00,
2013-08-11 21:36:00,61.4,55.9,29.68,West,260,0.0,0.0,82,0.00,,,0.00,0,WeatherCatV1.02B3,2013-08-12 04:36:00,
2013-08-11 21:48:00,61.4,56.2,29.68,West,260,0.0,0.0,83,0.00,,,0.00,0,WeatherCatV1.02B3,2013-08-12 04:48:00,
2013-08-11 21:53:00,60.7,55.2,29.68,West,260,0.0,0.0,82,0.00,,,0.00,0,WeatherCatV1.02B3,2013-08-12 04:53:00,
2013-08-11 21:58:00,60.8,55.9,29.68,West,260,0.0,0.0,84,0.00,,,0.00,0,WeatherCatV1.02B3,2013-08-12 04:58:00,
2013-08-11 22:03:00,60.2,55.0,29.68,West,260,0.0,0.0,83,0.00,,,0.00,0,WeatherCatV1.02B3,2013-08-12 05:03:00,
2013-08-11 22:08:00,59.8,55.0,29.68,West,260,0.0,0.0,84,0.00,,,0.00,0,WeatherCatV1.02B3,2013-08-12 05:08:00,
2013-08-11 22:13:00,60.2,55.7,29.68,West,260,0.0,0.0,85,0.00,,,0.00,0,WeatherCatV1.02B3,2013-08-12 05:13:00,
2013-08-11 22:18:00,60.2,55.3,29.68,West,260,0.0,0.0,84,0.00,,,0.00,0,WeatherCatV1.02B3,2013-08-12 05:18:00,
2013-08-11 22:23:00,60.2,55.7,29.68,West,260,0.0,0.0,85,0.00,,,0.00,0,WeatherCatV1.02B3,2013-08-12 05:23:00,
2013-08-11 22:28:00,59.9,55.0,29.68,West,260,0.0,0.0,84,0.00,,,0.00,0,WeatherCatV1.02B3,2013-08-12 05:28:00,
2013-08-11 22:33:00,59.4,54.6,29.68,West,260,0.0,0.0,84,0.00,,,0.00,0,WeatherCatV1.02B3,2013-08-12 05:33:00,
2013-08-11 22:38:00,59.5,55.0,29.68,West,260,0.0,0.0,85,0.00,,,0.00,0,WeatherCatV1.02B3,2013-08-12 05:38:00,
2013-08-11 22:43:00,59.2,54.7,29.68,West,260,0.0,0.0,85,0.00,,,0.00,0,WeatherCatV1.02B3,2013-08-12 05:43:00,
2013-08-11 22:48:00,59.1,54.9,29.68,West,260,0.0,0.0,86,0.00,,,0.00,0,WeatherCatV1.02B3,2013-08-12 05:48:00,
2013-08-11 22:53:00,59.2,55.0,29.68,West,260,0.0,0.0,86,0.00,,,0.00,0,WeatherCatV1.02B3,2013-08-12 05:53:00,
2013-08-11 22:58:00,59.3,55.1,29.68,West,260,0.0,0.0,86,0.00,,,0.00,0,WeatherCatV1.02B3,2013-08-12 05:58:00,
2013-08-11 23:03:00,58.9,54.7,29.68,West,260,0.0,0.0,86,0.00,,,0.00,0,WeatherCatV1.02B3,2013-08-12 06:03:00,
2013-08-11 23:08:00,58.4,54.2,29.68,West,260,0.0,0.0,86,0.00,,,0.00,0,WeatherCatV1.02B3,2013-08-12 06:08:00,
2013-08-11 23:13:00,58.5,54.6,29.68,West,260,0.0,0.0,87,0.00,,,0.00,0,WeatherCatV1.02B3,2013-08-12 06:13:00,
2013-08-11 23:18:00,58.2,54.3,29.68,West,260,0.0,0.0,87,0.00,,,0.00,0,WeatherCatV1.02B3,2013-08-12 06:18:00,
2013-08-11 23:23:00,58.5,54.6,29.68,West,260,0.0,0.0,87,0.00,,,0.00,0,WeatherCatV1.02B3,2013-08-12 06:23:00,
2013-08-11 23:28:00,58.1,53.9,29.68,West,260,0.0,0.0,86,0.00,,,0.00,0,WeatherCatV1.02B3,2013-08-12 06:28:00,
2013-08-11 23:33:00,57.6,53.8,29.68,West,260,0.0,0.0,87,0.00,,,0.00,0,WeatherCatV1.02B3,2013-08-12 06:33:00,
2013-08-11 23:38:00,57.5,54.0,29.68,West,260,0.0,0.0,88,0.00,,,0.00,0,WeatherCatV1.02B3,2013-08-12 06:38:00,
2013-08-11 23:43:00,57.8,54.6,29.68,West,260,0.0,0.0,89,0.00,,,0.00,0,WeatherCatV1.02B3,2013-08-12 06:43:00,
2013-08-11 23:48:00,58.2,55.0,29.68,West,260,0.0,0.0,89,0.00,,,0.00,0,WeatherCatV1.02B3,2013-08-12 06:48:00,
2013-08-11 23:53:00,57.0,53.2,29.68,West,260,0.0,0.0,87,0.00,,,0.00,0,WeatherCatV1.02B3,2013-08-12 06:53:00,
2013-08-11 23:58:00,57.2,54.0,29.68,West,260,0.0,0.0,89,0.00,,,0.00,0,WeatherCatV1.02B3,2013-08-12 06:58:00,